METAR v bližini

 

LJLJ - Ljubljana/Brnik, Slovenia
Oddaljenost od postaje: W 41km
Podatki zajeti: 21/01/2022 00:00
Pretežno oblačno
Pretežno oblačno
 Veter iz smeri spremenljiv
Veter: spremenljiv 4 km/h
Temperatura: -2°C
Rosišče: -2°C
Vlažnost: 100%
Tlak: 1019 hPa
Oblačnost: Pretežno oblačno
Vidljivost: 7 km
Podrobnosti o oblakih: Rahlo oblačno 91 m
Pretežno oblačno 366 m
2022/01/20 23:00 LJLJ 202300Z VRB02KT 7000 FEW003 BKN012 M02/M02 Q1019 NOSIG
LJMB - Maribor, Slovenia
Oddaljenost od postaje: NE 63km
Podatki zajeti: 21/01/2022 00:00
Pretežno oblačno
Pretežno oblačno
 Veter iz smeri spremenljiv
Veter: spremenljiv 2 km/h
Temperatura: -1°C
Rosišče: -3°C
Vlažnost: 86%
Tlak: 1020 hPa
Oblačnost: Pretežno oblačno
Vidljivost: 10 km
Podrobnosti o oblakih: Rahlo oblačno 366 m
Pretežno oblačno 2438 m
2022/01/20 23:00 LJMB 202300Z AUTO VRB01KT 9999 FEW012/// BKN080/// M01/M03 Q1020
 
LJPZ - Portoroz, Slovenia
Oddaljenost od postaje: SW 130km
Podatki zajeti: 21/01/2022 00:00
Meglica, Jasno
Meglica, Jasno
 Veter iz smeri ESE
Veter: ESE 7 km/h
Temperatura: 1°C
Občutek mraza zaradi vetra: -2°C
Rosišče: 1°C
Vlažnost: 100%
Tlak: 1019 hPa
Stanje: Meglica
Oblačnost: Jasno
Vidljivost: 2 km
2022/01/20 23:00 LJPZ 202300Z AUTO 12004KT 2100 BR NCD 01/01 Q1019
LJCE - Cerklje, Slovenia
Oddaljenost od postaje: ESE 49km
Podatki zajeti: 21/01/2022 00:00
Pretežno oblačno
Pretežno oblačno
 Veter iz smeri NE
Veter: NE 11 km/h
Temperatura: 1°C
Občutek mraza zaradi vetra: -2°C
Rosišče: -1°C
Vlažnost: 87%
Tlak: 1021 hPa
Oblačnost: Pretežno oblačno
Vidljivost: 10 km
Podrobnosti o oblakih: Rahlo oblačno 1006 m
Pretežno oblačno 2652 m
2022/01/20 23:00 LJCE 202300Z AUTO 04006KT 9999 FEW033/// BKN087/// 01/M01 Q1021
 
LDZA - Zagreb/Pleso, Croatia
Oddaljenost od postaje: ESE 96km
Podatki zajeti: 21/01/2022 00:00
Rahlo oblačno
Rahlo oblačno
 Veter iz smeri E
Veter: E 4 km/h
Temperatura: 0°C
Rosišče: -2°C
Vlažnost: 87%
Tlak: 1021 hPa
Oblačnost: Rahlo oblačno
Vidljivost: 10 km
Podrobnosti o oblakih: Rahlo oblačno 1006 m
2022/01/20 23:00 LDZA 202300Z 08002KT 9999 FEW033 M00/M02 Q1021 NOSIG
LDRI - Rijeka/Omisalj, Croatia
Oddaljenost od postaje: SSW 109km
Podatki zajeti: 21/01/2022 00:00
Delno oblačno
Delno oblačno
 Veter iz smeri spremenljiv
Veter: spremenljiv 4 km/h
Temperatura: 5°C
Rosišče: 4°C
Vlažnost: 93%
Tlak: 1018 hPa
Oblačnost: Delno oblačno
Vidljivost: 10 km
Podrobnosti o oblakih: Rahlo oblačno 488 m
Delno oblačno 1219 m
2022/01/20 23:00 LDRI 202300Z VRB02KT 9999 FEW016 SCT040 05/04 Q1018
 
LDPL - Pula, Croatia
Oddaljenost od postaje: SSW 164km
Podatki zajeti: 21/01/2022 00:00
Plitva megla, Delno oblačno
Plitva megla, Delno oblačno
 Veter iz smeri spremenljiv
Veter: spremenljiv 2 km/h
Temperatura: 1°C
Rosišče: -1°C
Vlažnost: 87%
Tlak: 1018 hPa
Stanje: Plitva megla
Oblačnost: Delno oblačno
Vidljivost: 10 km
2022/01/20 23:00 LDPL 202300Z VRB01KT 9999 MIFG NSC 01/M01 Q1018
LOWK - Klagenfurt(Civ/M, Austria
Oddaljenost od postaje: NW 76km
Podatki zajeti: 20/01/2022 23:50
Pretežno oblačno
Pretežno oblačno
 Veter iz smeri spremenljiv
Veter: spremenljiv 4 km/h
Temperatura: -5°C
Rosišče: -6°C
Vlažnost: 93%
Tlak: 1019 hPa
Oblačnost: Pretežno oblačno
Vidljivost: 10 km
Podrobnosti o oblakih: Rahlo oblačno 2134 m
Pretežno oblačno 2438 m
2022/01/20 22:50 LOWK 202250Z AUTO VRB02KT 9999 FEW070 BKN080 M05/M06 Q1019
 
LOWG - Graz (mil/Civ), Austria
Oddaljenost od postaje: NNE 100km
Podatki zajeti: 20/01/2022 23:50
Pretežno oblačno
Pretežno oblačno
 Veter iz smeri NE
Veter: NE 7 km/h
Temperatura: 2°C
Občutek mraza zaradi vetra: 0°C
Rosišče: -8°C
Vlažnost: 48%
Tlak: 1019 hPa
Oblačnost: Pretežno oblačno
Vidljivost: 10 km
Podrobnosti o oblakih: Rahlo oblačno 1829 m
Pretežno oblačno 2134 m
2022/01/20 22:50 LOWG 202250Z AUTO 04004KT 020V080 9999 FEW060 BKN070 02/M08 Q1019
LOAN - Wr.neustadt East, Austria
Oddaljenost od postaje: NNE 212km
Podatki zajeti: 20/01/2022 17:00
Ni posodobljen
Heavy snow, Plohe, Oblačno
Heavy snow, Plohe, Oblačno
 Veter iz smeri N
Veter: N 28 km/h, Sunek vetra: 56 km/h
Stanje: Heavy snow, Plohe
Oblačnost: Oblačno
Vidljivost: 1 km
Podrobnosti o oblakih: Oblačno 91 m
2022/01/20 16:00 LOAN 201600Z 36015G30KT 0500 +SHSN VV003
 
LIPQ - Ronchi Legionari, Italy
Oddaljenost od postaje: SW 35km
Podatki zajeti: 20/01/2022 23:50
Megla ki zmrzuje, Oblačno
Megla ki zmrzuje, Oblačno
 Veter iz smeri NE
Veter: NE 4 km/h
Temperatura: -1°C
Rosišče: -1°C
Vlažnost: 100%
Tlak: 1019 hPa
Stanje: Megla ki zmrzuje
Oblačnost: Oblačno
Vidljivost: 0 km
Podrobnosti o oblakih: Oblačno 213 m
2022/01/20 22:50 LIPQ 202250Z AUTO 04002KT 0250 R09/0350D FZFG VV007 M01/M01 Q1019
LIVT - Trieste, Italy
Oddaljenost od postaje: WSW 109km
Podatki zajeti: 20/01/2022 18:55
Ni posodobljen
Delno oblačno
Delno oblačno
 Veter iz smeri calm
Veter: Calm
Temperatura: 6°C
Rosišče: 5°C
Vlažnost: 93%
Tlak: 1018 hPa
Oblačnost: Delno oblačno
Vidljivost: 10 km
Podrobnosti o oblakih: Delno oblačno 610 m
Delno oblačno 1219 m
2022/01/20 17:55 LIVT 201755Z 00000KT 9999 SCT020 SCT040 06/05 Q1018 RMK BKN QUK / QUL / VIS MAR 10 KM VIS MIN 9999
 
LIVO - Tarvisio, Italy
Oddaljenost od postaje: NNW 49km
Podatki zajeti: 20/01/2022 18:55
Ni posodobljen
Jasno
Jasno
 Veter iz smeri calm
Veter: Calm
Temperatura: -1°C
Rosišče: -3°C
Vlažnost: 86%
Tlak: 1015 hPa
Stanje: Jasno
Vidljivost: večja od 10 km
2022/01/20 17:55 LIVO 201755Z 00000KT CAVOK M01/M03 Q1015 RMK SKC VIS MIN 9999
LIPZ - Venezia/Tessera, Italy
Oddaljenost od postaje: WSW 217km
Podatki zajeti: 20/01/2022 23:50
Meglica, Delno oblačno
Meglica, Delno oblačno
 Veter iz smeri WNW
Veter: WNW 6 km/h
Temperatura: 2°C
Rosišče: 1°C
Vlažnost: 93%
Tlak: 1019 hPa
Stanje: Meglica
Oblačnost: Delno oblačno
Vidljivost: 2 km
2022/01/20 22:50 LIPZ 202250Z 29003KT 260V350 2000 BR NSC 02/01 Q1019 NOSIG
 
LHSM - Balaton, Hungary
Oddaljenost od postaje: ENE 177km
Podatki zajeti: 20/01/2022 23:45
Delno oblačno
Delno oblačno
 Veter iz smeri spremenljiv
Veter: spremenljiv 4 km/h
Temperatura: 0°C
Rosišče: -4°C
Vlažnost: 75%
Tlak: 1020 hPa
Oblačnost: Delno oblačno
Vidljivost: 9 km
2022/01/20 22:45 LHSM 202245Z AUTO VRB02KT 9000 NSC M00/M04 Q1020